Time;durP1;ratioP1;P1;durP2;ratioP2;P2;SDS_P1;SDS_P2;PMS_P1;PMS_P2;Temp;Humidity;BMP_temperature;BMP_pressure;BME280_temperature;BME280_humidity;BME280_pressure;Samples;Min_cycle;Max_cycle;Signal;HPM_P1;HPM_P2
2022/04/11 00:01:55;;;;;;;1.23;1.10;;;;;;;4.58;85.67;99739.08;1706025;82;20193;-69
2022/04/11 00:04:21;;;;;;;0.80;0.80;;;;;;;4.48;86.06;99742.35;1702944;81;21535;-70
2022/04/11 00:06:49;;;;;;;1.93;0.87;;;;;;;4.46;86.09;99741.69;1704076;81;21103;-69
2022/04/11 00:09:17;;;;;;;2.03;1.00;;;;;;;4.46;86.08;99746.50;1717354;81;22158;-70
2022/04/11 00:11:43;;;;;;;2.08;1.37;;;;;;;4.45;85.62;99743.52;1707783;82;21161;-69
2022/04/11 00:14:12;;;;;;;0.80;0.80;;;;;;;4.48;85.84;99751.59;1705851;81;21051;-69
2022/04/11 00:16:40;;;;;;;2.77;0.93;;;;;;;4.43;86.31;99743.36;1711075;81;21036;-69
2022/04/11 00:19:10;;;;;;;0.90;0.90;;;;;;;4.43;86.51;99746.81;1711102;82;22065;-68
2022/04/11 00:21:38;;;;;;;1.63;0.73;;;;;;;4.44;86.39;99745.81;1701849;82;21151;-68
2022/04/11 00:24:06;;;;;;;3.52;0.93;;;;;;;4.46;86.10;99745.18;1709143;81;21032;-69
2022/04/11 00:26:34;;;;;;;0.80;0.63;;;;;;;4.45;86.59;99746.16;1713502;81;21008;-67
2022/04/11 00:29:01;;;;;;;1.03;0.93;;;;;;;4.47;86.49;99750.77;1712167;81;21060;-68
2022/04/11 00:31:29;;;;;;;1.43;0.97;;;;;;;4.50;86.52;99748.29;1674187;83;21068;-69
2022/04/11 00:33:57;;;;;;;1.23;0.83;;;;;;;4.51;86.12;99734.63;1684561;84;21098;-69
2022/04/11 00:36:24;;;;;;;4.45;1.32;;;;;;;4.53;86.10;99740.05;1651941;85;21228;-68
2022/04/11 00:38:50;;;;;;;1.32;1.17;;;;;;;4.52;86.26;99748.13;1660975;84;21349;-69
2022/04/11 00:41:17;;;;;;;2.50;1.23;;;;;;;4.52;86.29;99750.30;1674754;83;21173;-69
2022/04/11 00:43:44;;;;;;;1.98;0.78;;;;;;;4.53;86.13;99756.39;1680245;83;21517;-69
2022/04/11 00:46:10;;;;;;;2.12;0.90;;;;;;;4.51;86.37;99753.09;1655212;85;21014;-69
2022/04/11 00:48:38;;;;;;;1.03;0.80;;;;;;;4.52;86.18;99762.17;1651946;86;22250;-69
2022/04/11 00:51:17;;;;;;;1.23;1.13;;;;;;;4.53;86.26;99760.36;1638148;85;21102;-66
2022/04/11 00:53:46;;;;;;;1.03;1.03;;;;;;;4.22;86.14;99705.54;1637257;85;21100;-69
2022/04/11 00:56:18;;;;;;;1.80;0.73;;;;;;;4.61;86.06;99762.48;1615735;87;21051;-69
2022/04/11 00:58:46;;;;;;;0.97;0.70;;;;;;;4.62;86.01;99757.55;1628747;86;21090;-70
2022/04/11 01:01:16;;;;;;;2.07;1.03;;;;;;;4.62;85.74;99754.09;1635320;86;21088;-69
2022/04/11 01:03:44;;;;;;;1.53;0.60;;;;;;;4.62;85.78;99753.59;1634934;85;21029;-68
2022/04/11 01:06:11;;;;;;;1.37;1.10;;;;;;;4.65;85.51;99760.34;1646902;84;21145;-68
2022/04/11 01:08:39;;;;;;;1.00;0.90;;;;;;;4.69;85.47;99764.34;1630435;86;21060;-68
2022/04/11 01:11:07;;;;;;;2.90;0.60;;;;;;;4.70;85.41;99759.88;1652438;84;21151;-69
2022/04/11 01:13:34;;;;;;;0.85;0.85;;;;;;;4.67;85.35;99764.50;1648782;85;21093;-69
2022/04/11 01:16:05;;;;;;;0.87;0.50;;;;;;;4.65;85.58;99770.91;1653528;85;21025;-69
2022/04/11 01:18:36;;;;;;;1.27;0.80;;;;;;;4.66;85.56;99771.25;1655633;84;21555;-68
2022/04/11 01:21:06;;;;;;;2.30;0.80;;;;;;;4.67;85.57;99766.28;1654898;84;21051;-68
2022/04/11 01:23:33;;;;;;;2.87;0.80;;;;;;;4.66;85.68;99762.02;1653318;84;21068;-69
2022/04/11 01:25:59;;;;;;;0.65;0.60;;;;;;;4.66;85.77;99768.61;1620597;86;21088;-69
2022/04/11 01:28:27;;;;;;;1.47;0.40;;;;;;;4.63;85.91;99757.05;1661372;84;21119;-69
2022/04/11 01:30:56;;;;;;;1.37;0.90;;;;;;;4.60;86.17;99764.00;1646104;85;21096;-69
2022/04/11 01:33:29;;;;;;;1.43;0.87;;;;;;;4.54;86.21;99759.34;1661764;84;21146;-69
2022/04/11 01:35:57;;;;;;;2.40;0.50;;;;;;;4.52;86.30;99760.86;1639426;86;21098;-68
2022/04/11 01:38:23;;;;;;;0.62;0.45;;;;;;;4.51;86.50;99767.61;1630607;86;21051;-68
2022/04/11 01:40:53;;;;;;;1.12;0.93;;;;;;;4.54;86.32;99767.27;1657585;84;21582;-68
2022/04/11 01:43:22;;;;;;;1.80;0.57;;;;;;;4.57;86.25;99760.35;1613120;87;21076;-68
2022/04/11 01:45:50;;;;;;;1.07;0.50;;;;;;;4.59;86.21;99753.91;1665147;84;21640;-68
2022/04/11 01:48:19;;;;;;;1.40;0.60;;;;;;;4.59;86.36;99754.41;1657803;84;21585;-69
2022/04/11 01:50:46;;;;;;;0.70;0.70;;;;;;;4.58;86.39;99749.64;1660587;84;21835;-68
2022/04/11 01:53:16;;;;;;;1.40;0.80;;;;;;;4.58;86.46;99750.95;1654009;85;21164;-67
2022/04/11 01:55:43;;;;;;;1.03;0.60;;;;;;;4.61;86.42;99753.75;1646872;84;21553;-68
2022/04/11 01:58:12;;;;;;;0.73;0.40;;;;;;;4.65;86.43;99758.56;1659564;85;21121;-68
2022/04/11 02:00:41;;;;;;;2.00;0.53;;;;;;;4.74;86.42;99758.55;1664272;84;21089;-69
2022/04/11 02:03:09;;;;;;;0.60;0.60;;;;;;;4.75;85.65;99763.67;1683020;83;21104;-69
2022/04/11 02:08:49;;;;;;;1.50;0.70;;;;;;;4.72;85.63;99760.03;1790133;78;22941;-68
2022/04/11 02:11:17;;;;;;;3.33;1.43;;;;;;;4.71;85.85;99762.83;1755316;80;21017;-69
2022/04/11 02:13:44;;;;;;;;;;;;;;;4.71;85.94;99760.19;1716726;82;21089;-69
2022/04/11 02:16:12;;;;;;;0.53;0.47;;;;;;;4.71;85.35;99765.00;1695875;82;20214;-69
2022/04/11 02:18:38;;;;;;;6.40;0.78;;;;;;;4.73;85.25;99760.38;1704021;82;21136;-68
2022/04/11 02:21:06;;;;;;;1.03;0.60;;;;;;;4.75;84.93;99763.67;1726215;82;20988;-69
2022/04/11 02:23:34;;;;;;;0.97;0.40;;;;;;;4.78;84.85;99764.64;1693010;83;21045;-68
2022/04/11 02:26:02;;;;;;;0.60;0.33;;;;;;;4.78;85.03;99759.86;1682199;83;21660;-68
2022/04/11 02:28:29;;;;;;;1.77;0.87;;;;;;;4.74;85.28;99769.11;1674671;83;21027;-69
2022/04/11 02:30:55;;;;;;;2.05;0.90;;;;;;;4.78;85.19;99762.00;1683430;83;21082;-69
2022/04/11 02:33:23;;;;;;;1.07;0.50;;;;;;;4.78;85.19;99762.00;1656256;83;21205;-69
2022/04/11 02:35:50;;;;;;;7.50;1.17;;;;;;;4.85;84.92;99761.67;1672655;83;21531;-69
2022/04/11 02:38:16;;;;;;;;;;;;;;;4.88;84.79;99762.68;1667002;83;21091;-69
2022/04/11 02:40:43;;;;;;;0.87;0.67;;;;;;;4.86;84.78;99767.30;1674518;84;20151;-69
2022/04/11 02:43:14;;;;;;;1.83;0.73;;;;;;;4.79;84.98;99762.34;1635907;85;22233;-68
2022/04/11 02:45:44;;;;;;;1.17;0.60;;;;;;;4.78;84.71;99767.28;1613798;86;21494;-70
2022/04/11 02:48:10;;;;;;;0.65;0.60;;;;;;;4.78;84.81;99764.64;1623270;87;21550;-68
2022/04/11 02:50:39;;;;;;;0.60;0.60;;;;;;;4.81;84.97;99766.97;1641568;86;21042;-68
2022/04/11 02:53:07;;;;;;;1.73;0.70;;;;;;;4.81;85.04;99758.23;1629334;86;21125;-68
2022/04/11 02:55:34;;;;;;;1.33;0.67;;;;;;;4.84;85.14;99752.13;1626135;86;21017;-67
2022/04/11 02:58:00;;;;;;;1.67;1.00;;;;;;;4.85;85.15;99753.75;1683505;84;21093;-68
2022/04/11 03:00:28;;;;;;;1.33;0.80;;;;;;;4.85;85.36;99759.54;1670430;84;21057;-68
2022/04/11 03:02:58;;;;;;;1.40;1.13;;;;;;;4.85;85.35;99761.67;1650769;84;21125;-69
2022/04/11 03:05:28;;;;;;;0.70;0.50;;;;;;;4.87;85.19;99765.48;1655521;84;21097;-69
2022/04/11 03:07:55;;;;;;;4.00;0.70;;;;;;;4.92;84.90;99767.14;1624839;86;21133;-69
2022/04/11 03:10:23;;;;;;;2.30;0.73;;;;;;;4.94;84.87;99776.22;1601166;87;21147;-69
2022/04/11 03:12:51;;;;;;;1.17;1.10;;;;;;;4.94;84.77;99764.34;1631683;85;20991;-69
2022/04/11 03:15:17;;;;;;;3.60;0.80;;;;;;;4.82;84.85;99769.10;1639707;85;21064;-68
2022/04/11 03:17:44;;;;;;;1.22;0.70;;;;;;;4.69;85.20;99765.66;1641526;85;21105;-69
2022/04/11 03:20:12;;;;;;;1.23;0.70;;;;;;;4.63;85.47;99765.81;1637538;85;21062;-70
2022/04/11 03:22:39;;;;;;;1.47;0.60;;;;;;;4.59;85.90;99764.97;1648986;85;21074;-69
2022/04/11 03:25:10;;;;;;;1.33;0.90;;;;;;;4.59;85.96;99763.66;1647708;85;21095;-68
2022/04/11 03:27:38;;;;;;;1.80;0.97;;;;;;;4.61;85.75;99766.45;1651765;86;21050;-68
2022/04/11 03:30:08;;;;;;;1.03;0.80;;;;;;;4.63;85.78;99772.42;1664525;86;21128;-68
2022/04/11 03:32:36;;;;;;;0.70;0.50;;;;;;;4.70;85.61;99768.61;1657435;86;21053;-67
2022/04/11 03:35:06;;;;;;;1.43;1.00;;;;;;;4.74;85.53;99772.56;1687801;83;21021;-69
2022/04/11 03:37:33;;;;;;;1.10;1.00;;;;;;;4.72;85.47;99775.87;1683828;83;21096;-67
2022/04/11 03:40:01;;;;;;;3.93;1.07;;;;;;;4.68;85.25;99775.88;1685736;84;21128;-68
2022/04/11 03:42:30;;;;;;;0.70;0.70;;;;;;;4.71;85.00;99782.16;1686760;83;21581;-69
2022/04/11 03:44:56;;;;;;;1.47;0.90;;;;;;;4.77;84.93;99789.41;1695559;83;21086;-68
2022/04/11 03:47:23;;;;;;;;;;;;;;;4.80;84.48;99794.38;1688649;84;21120;-69
2022/04/11 03:49:49;;;;;;;2.63;0.67;;;;;;;4.85;84.39;99799.97;1703076;84;20115;-68
2022/04/11 03:52:17;;;;;;;0.60;0.60;;;;;;;4.86;84.05;99806.09;1700346;83;21065;-68
2022/04/11 03:54:45;;;;;;;1.83;1.60;;;;;;;4.91;83.73;99805.59;1690735;83;21552;-68
2022/04/11 03:57:12;;;;;;;4.00;0.63;;;;;;;5.01;83.73;99807.56;1694506;84;21076;-68
2022/04/11 03:59:38;;;;;;;;;;;;;;;5.11;82.25;99810.87;1696931;83;21061;-68
2022/04/11 04:02:05;;;;;;;1.73;1.40;;;;;;;5.16;82.09;99812.53;1692482;83;20440;-68
2022/04/11 04:04:31;;;;;;;1.12;1.05;;;;;;;5.14;82.39;99815.84;1693202;83;21077;-69
2022/04/11 04:06:58;;;;;;;2.47;1.20;;;;;;;5.23;82.69;99820.10;1700594;83;22361;-69
2022/04/11 04:09:25;;;;;;;3.70;1.20;;;;;;;5.40;82.65;99819.59;1690113;83;21133;-70
2022/04/11 04:11:52;;;;;;;3.12;1.15;;;;;;;5.52;82.17;99820.09;1701937;83;21096;-69
2022/04/11 04:14:23;;;;;;;3.70;0.93;;;;;;;5.71;82.27;99813.60;1700211;83;21177;-70
2022/04/11 04:16:51;;;;;;;2.17;0.80;;;;;;;6.16;82.55;99809.98;1672371;84;21563;-69
2022/04/11 04:19:19;;;;;;;1.83;1.20;;;;;;;6.75;80.32;99804.20;1661624;84;21087;-70
2022/04/11 04:21:46;;;;;;;;;;;;;;;7.23;79.01;99802.13;1645112;85;21393;-69
2022/04/11 04:24:14;;;;;;;;;;;;;;;7.68;75.10;99800.88;1713938;83;20113;-70
2022/04/11 04:26:41;;;;;;;2.08;1.35;;;;;;;7.91;75.78;99802.94;1722814;83;20149;-70
2022/04/11 04:29:09;;;;;;;2.90;1.73;;;;;;;8.25;72.19;99804.19;1719882;83;21046;-70
2022/04/11 04:31:37;;;;;;;1.33;1.20;;;;;;;8.50;72.40;99807.86;1718129;83;21018;-71
2022/04/11 04:34:03;;;;;;;2.25;1.30;;;;;;;8.82;71.42;99809.72;1693670;83;21176;-70
2022/04/11 04:36:29;;;;;;;1.92;1.37;;;;;;;9.29;69.69;99810.95;1676306;84;21065;-71
2022/04/11 04:38:58;;;;;;;1.23;0.93;;;;;;;9.69;67.12;99819.20;1688692;84;21035;-70
2022/04/11 04:41:26;;;;;;;1.90;1.47;;;;;;;9.97;67.04;99817.02;1692461;84;21137;-70
2022/04/11 04:43:53;;;;;;;2.47;1.40;;;;;;;10.29;64.36;99819.52;1678022;84;21401;-70
2022/04/11 04:46:19;;;;;;;5.50;1.20;;;;;;;10.50;64.69;99816.73;1714204;83;21494;-71
2022/04/11 04:48:47;;;;;;;2.03;1.83;;;;;;;10.71;62.86;99818.42;1726752;83;21592;-68
2022/04/11 04:51:18;;;;;;;1.40;1.00;;;;;;;10.31;61.85;99770.36;1713068;83;21031;-70
2022/04/11 04:53:48;;;;;;;1.33;1.23;;;;;;;10.45;62.03;99825.02;1722673;83;21034;-71
2022/04/11 04:56:15;;;;;;;;;;;;;;;9.99;63.86;99824.30;1684605;84;21127;-70
2022/04/11 04:58:46;;;;;;;2.30;0.97;;;;;;;9.59;64.61;99836.00;1696021;84;20114;-70
2022/04/11 05:01:14;;;;;;;2.27;1.43;;;;;;;9.07;66.03;99831.41;1686498;83;21030;-70
2022/04/11 05:03:42;;;;;;;2.37;1.77;;;;;;;8.70;68.16;99830.63;1687317;84;21065;-70
2022/04/11 05:06:10;;;;;;;2.30;2.10;;;;;;;8.47;68.69;99836.92;1684829;84;21134;-69
2022/04/11 05:08:37;;;;;;;2.63;2.43;;;;;;;8.15;69.52;99837.63;1699653;83;21153;-69
2022/04/11 05:11:05;;;;;;;4.93;2.43;;;;;;;8.02;70.55;99832.66;1697498;84;21046;-69
2022/04/11 05:13:33;;;;;;;2.80;2.00;;;;;;;7.94;70.94;99837.05;1706159;83;21074;-69
2022/04/11 05:16:01;;;;;;;2.87;2.13;;;;;;;7.87;71.38;99837.97;1705982;84;21157;-71
2022/04/11 05:18:29;;;;;;;3.60;2.27;;;;;;;7.90;72.17;99829.66;1711705;84;21054;-70
2022/04/11 05:20:56;;;;;;;2.23;2.03;;;;;;;7.97;72.13;99835.88;1706001;83;21546;-70
2022/04/11 05:23:23;;;;;;;5.47;2.43;;;;;;;8.02;71.55;99830.83;1697930;83;20984;-70
2022/04/11 05:25:50;;;;;;;3.23;2.17;;;;;;;8.06;71.52;99826.82;1685057;84;20983;-70
2022/04/11 05:28:17;;;;;;;;;;;;;;;8.08;71.16;99825.28;1694032;84;21013;-69
2022/04/11 05:30:48;;;;;;;3.23;2.27;;;;;;;7.96;70.56;99816.97;1685406;84;20175;-68
2022/04/11 05:33:15;;;;;;;;;;;;;;;7.80;71.89;99814.83;1690039;83;21038;-69
2022/04/11 05:35:42;;;;;;;3.30;1.63;;;;;;;7.94;71.01;99818.48;1712752;83;20203;-70
2022/04/11 05:38:10;;;;;;;2.60;2.40;;;;;;;8.01;69.64;99825.73;1712726;83;21086;-71
2022/04/11 05:40:37;;;;;;;2.57;1.70;;;;;;;7.99;69.57;99824.06;1712274;83;21083;-70
2022/04/11 05:43:07;;;;;;;1.97;1.83;;;;;;;7.99;70.10;99824.58;1714236;83;21089;-70
2022/04/11 05:45:37;;;;;;;2.43;1.80;;;;;;;8.05;69.54;99830.98;1717586;82;21028;-71
2022/04/11 05:48:05;;;;;;;6.63;2.73;;;;;;;8.02;69.32;99829.50;1721438;82;21014;-70
2022/04/11 05:50:32;;;;;;;5.97;2.70;;;;;;;8.00;68.86;99830.19;1673134;84;21129;-69
2022/04/11 05:53:00;;;;;;;4.03;1.53;;;;;;;7.97;69.07;99838.03;1671542;84;21103;-69
2022/04/11 05:55:27;;;;;;;1.83;1.63;;;;;;;7.98;69.23;99831.70;1699591;83;21021;-71
2022/04/11 05:57:53;;;;;;;1.63;1.13;;;;;;;8.08;68.77;99839.88;1678310;84;21064;-69
2022/04/11 06:00:20;;;;;;;;;;;;;;;8.37;67.71;99833.22;1703143;82;21018;-71
2022/04/11 06:02:48;;;;;;;2.50;1.42;;;;;;;8.74;66.09;99838.57;1733401;82;20178;-69
2022/04/11 06:05:15;;;;;;;2.80;1.23;;;;;;;9.16;64.94;99824.44;1723037;82;21122;-70
2022/04/11 06:07:43;;;;;;;2.80;1.90;;;;;;;9.52;65.09;99836.79;1725262;82;21052;-71
2022/04/11 06:10:11;;;;;;;1.67;1.40;;;;;;;9.90;61.90;99827.61;1707608;83;21169;-70
2022/04/11 06:12:39;;;;;;;2.13;1.23;;;;;;;10.23;63.05;99821.13;1737671;82;21026;-71
2022/04/11 06:15:11;;;;;;;1.60;1.40;;;;;;;10.64;58.85;99838.94;1740924;82;21605;-71
2022/04/11 06:17:37;;;;;;;1.20;1.10;;;;;;;10.50;58.99;99783.95;1687278;83;21523;-72
2022/04/11 06:20:06;;;;;;;1.50;0.80;;;;;;;10.78;57.87;99855.77;1680746;84;21045;-70
2022/04/11 06:22:40;;;;;;;2.60;1.00;;;;;;;10.52;57.85;99851.99;1689974;84;21067;-70
2022/04/11 06:25:10;;;;;;;3.03;1.03;;;;;;;10.00;58.49;99853.88;1701530;82;22217;-71
2022/04/11 06:27:37;;;;;;;1.60;1.50;;;;;;;9.54;59.82;99855.23;1712216;84;21096;-70
2022/04/11 06:30:06;;;;;;;1.33;1.10;;;;;;;9.40;60.66;99860.96;1679367;84;21069;-69
2022/04/11 06:32:34;;;;;;;2.93;1.07;;;;;;;9.33;60.49;99859.56;1708499;83;21018;-70
2022/04/11 06:35:01;;;;;;;3.00;2.00;;;;;;;9.17;59.87;99870.45;1646793;85;21085;-70
2022/04/11 06:37:30;;;;;;;4.90;1.63;;;;;;;8.99;61.15;99871.43;1668910;83;21097;-70
2022/04/11 06:39:58;;;;;;;1.93;1.80;;;;;;;8.75;61.55;99866.27;1666596;84;21082;-70
2022/04/11 06:42:25;;;;;;;3.93;1.50;;;;;;;8.56;62.27;99870.86;1677860;84;21066;-70
2022/04/11 06:44:53;;;;;;;3.03;1.23;;;;;;;8.54;63.09;99871.55;1644201;85;21188;-68
2022/04/11 06:47:24;;;;;;;1.97;1.20;;;;;;;8.54;62.04;99866.23;1670620;84;21120;-67
2022/04/11 06:49:52;;;;;;;1.47;1.33;;;;;;;8.49;62.00;99860.66;1674198;84;21614;-70
2022/04/11 06:52:18;;;;;;;0.93;0.78;;;;;;;8.46;62.57;99855.22;1674104;83;21163;-71
2022/04/11 06:54:46;;;;;;;1.83;1.60;;;;;;;8.53;62.91;99856.61;1683462;83;21060;-72
2022/04/11 06:57:12;;;;;;;3.20;1.22;;;;;;;8.64;62.00;99860.62;1656341;84;21550;-71
2022/04/11 06:59:39;;;;;;;;;;;;;;;8.75;61.97;99857.48;1654077;85;21538;-71
2022/04/11 07:02:05;;;;;;;4.53;1.27;;;;;;;8.81;61.93;99854.57;1678687;81;20453;-71
2022/04/11 07:04:31;;;;;;;1.20;0.80;;;;;;;8.76;61.07;99854.63;1679552;83;21113;-71
2022/04/11 07:06:57;;;;;;;2.40;0.70;;;;;;;8.72;62.39;99835.25;1679062;83;21077;-73
2022/04/11 07:09:24;;;;;;;;;;;;;;;8.79;61.96;99853.94;1675773;83;21244;-72
2022/04/11 07:11:50;;;;;;;2.20;1.20;;;;;;;8.82;62.46;99856.23;1677859;83;20177;-73
2022/04/11 07:14:19;;;;;;;1.70;1.27;;;;;;;8.82;62.05;99844.27;1693152;83;21571;-71
2022/04/11 07:16:46;;;;;;;1.70;1.27;;;;;;;8.79;61.50;99855.27;1681783;83;21098;-72
2022/04/11 07:19:12;;;;;;;3.10;1.35;;;;;;;8.77;61.42;99855.45;1683771;83;21143;-71
2022/04/11 07:21:38;;;;;;;3.77;1.72;;;;;;;8.76;62.47;99847.98;1685697;83;21072;-70
2022/04/11 07:24:04;;;;;;;3.00;1.72;;;;;;;8.87;62.33;99855.13;1692043;83;21220;-71
2022/04/11 07:26:32;;;;;;;1.43;1.10;;;;;;;9.01;61.25;99860.91;1677695;84;21638;-70
2022/04/11 07:28:59;;;;;;;3.30;1.17;;;;;;;9.16;60.86;99865.66;1693426;83;21082;-71
2022/04/11 07:31:27;;;;;;;2.50;1.15;;;;;;;9.30;60.06;99852.47;1686221;83;21075;-71
2022/04/11 07:33:54;;;;;;;1.33;0.83;;;;;;;9.39;59.77;99864.63;1677689;84;21102;-72
2022/04/11 07:36:21;;;;;;;;;;;;;;;9.52;59.43;99859.92;1692865;83;21161;-71
2022/04/11 07:38:47;;;;;;;2.60;1.60;;;;;;;9.59;58.33;99871.92;1685818;83;20142;-73
2022/04/11 07:41:14;;;;;;;0.93;0.90;;;;;;;9.48;58.30;99872.78;1685312;83;21106;-69
2022/04/11 07:43:40;;;;;;;;;;;;;;;9.39;59.15;99875.27;1683431;83;21108;-71
2022/04/11 07:46:07;;;;;;;2.00;1.10;;;;;;;9.35;58.14;99887.30;1684866;84;20154;-74
2022/04/11 07:48:34;;;;;;;;;;;;;;;9.22;58.36;99870.72;1679712;83;21090;-72
2022/04/11 07:51:00;;;;;;;1.00;1.00;;;;;;;9.26;58.40;99880.47;1693135;83;20134;-71
2022/04/11 07:53:27;;;;;;;1.40;1.05;;;;;;;9.27;58.73;99882.94;1690044;83;21526;-72
2022/04/11 07:55:54;;;;;;;2.83;1.70;;;;;;;9.33;58.54;99888.81;1686424;83;21044;-71
2022/04/11 07:58:20;;;;;;;1.75;1.07;;;;;;;9.39;58.48;99881.91;1678690;84;21078;-71
2022/04/11 08:00:51;;;;;;;2.75;1.07;;;;;;;9.45;58.15;99897.09;1693123;82;21013;-71
2022/04/11 08:03:15;;;;;;;0.80;0.80;;;;;;;9.51;58.43;99900.34;1724298;82;21049;-70
2022/04/11 08:05:41;;;;;;;1.77;1.67;;;;;;;9.59;57.93;99894.55;1726088;82;22162;-71
2022/04/11 08:08:07;;;;;;;1.30;1.10;;;;;;;9.73;58.01;99900.30;1725540;82;21141;-71
2022/04/11 08:10:34;;;;;;;1.50;0.93;;;;;;;9.81;56.40;99901.47;1715533;82;21541;-71
2022/04/11 08:13:01;;;;;;;1.20;1.00;;;;;;;9.84;56.33;99899.77;1717301;82;21552;-73
2022/04/11 08:15:31;;;;;;;1.43;1.30;;;;;;;9.78;56.28;99907.20;1714349;81;21140;-73
2022/04/11 08:17:58;;;;;;;2.63;1.50;;;;;;;9.73;56.23;99906.95;1712741;81;21029;-72
2022/04/11 08:20:27;;;;;;;3.27;1.70;;;;;;;9.72;55.73;99889.34;1717734;81;21073;-70
2022/04/11 08:22:55;;;;;;;1.47;1.37;;;;;;;9.69;56.08;99898.52;1712056;82;21682;-72
2022/04/11 08:25:21;;;;;;;3.55;1.80;;;;;;;9.72;56.40;99901.33;1709614;82;21136;-72
2022/04/11 08:27:49;;;;;;;2.00;1.23;;;;;;;9.78;56.98;99901.06;1716012;82;21039;-72
2022/04/11 08:30:16;;;;;;;1.43;0.83;;;;;;;9.86;56.86;99888.41;1715936;83;22266;-69
2022/04/11 08:32:47;;;;;;;4.70;1.23;;;;;;;9.97;56.39;99876.92;1715757;82;21145;-71
2022/04/11 08:35:15;;;;;;;1.17;0.90;;;;;;;10.07;55.64;99882.70;1717093;82;21102;-71
2022/04/11 08:37:42;;;;;;;3.87;1.20;;;;;;;10.09;55.06;99875.34;1718390;82;21541;-71
2022/04/11 08:40:13;;;;;;;2.30;0.93;;;;;;;10.05;55.61;99881.56;1714919;82;21493;-72
2022/04/11 08:42:44;;;;;;;2.53;0.80;;;;;;;10.05;54.57;99878.90;1677033;84;21054;-70
2022/04/11 08:45:13;;;;;;;2.90;1.23;;;;;;;10.03;54.68;99879.61;1672893;84;21065;-71
2022/04/11 08:47:40;;;;;;;2.20;1.17;;;;;;;10.06;54.66;99869.09;1645385;85;21129;-71
2022/04/11 08:50:10;;;;;;;2.58;1.25;;;;;;;10.17;54.91;99871.20;1677318;83;21655;-71
2022/04/11 08:52:37;;;;;;;2.33;1.00;;;;;;;10.33;54.02;99878.87;1667422;83;21568;-71
2022/04/11 08:55:05;;;;;;;2.40;1.20;;;;;;;10.40;53.34;99878.10;1680384;84;21097;-71
2022/04/11 08:57:32;;;;;;;1.17;1.07;;;;;;;10.36;52.34;99872.83;1675411;84;21057;-72
2022/04/11 09:00:10;;;;;;;2.60;0.70;;;;;;;10.38;53.26;99872.13;1676105;84;21050;-71
2022/04/11 09:02:39;;;;;;;2.83;0.70;;;;;;;10.49;52.69;99872.39;1674118;84;21054;-70
2022/04/11 09:05:07;;;;;;;3.03;0.87;;;;;;;10.50;51.86;99865.22;1673326;84;21592;-72
2022/04/11 09:07:51;;;;;;;2.83;0.77;;;;;;;10.48;51.58;99860.60;1674874;84;21424;-71
2022/04/11 09:10:25;;;;;;;1.20;0.80;;;;;;;10.51;51.46;99866.88;1667362;84;22198;-70
2022/04/11 09:12:56;;;;;;;1.73;0.97;;;;;;;10.50;51.51;99878.54;1662375;83;21141;-72
2022/04/11 09:15:26;;;;;;;2.63;1.30;;;;;;;10.55;51.71;99900.09;1690005;83;21104;-70
2022/04/11 09:17:56;;;;;;;2.10;1.10;;;;;;;10.60;50.67;99916.29;1697922;83;21536;-72
2022/04/11 09:20:28;;;;;;;2.13;0.70;;;;;;;10.56;50.65;99908.38;1690992;83;21030;-68
2022/04/11 09:22:58;;;;;;;1.43;0.90;;;;;;;10.58;50.60;99909.00;1684422;83;21982;-70
2022/04/11 09:25:31;;;;;;;1.80;0.90;;;;;;;10.60;50.76;99904.81;1673190;84;21159;-72
2022/04/11 09:28:08;;;;;;;1.90;1.37;;;;;;;10.60;51.15;99898.15;1670802;84;21648;-69
2022/04/11 09:30:39;;;;;;;1.20;1.00;;;;;;;10.58;50.87;99902.34;1672875;83;21601;-70
2022/04/11 09:33:09;;;;;;;1.40;0.60;;;;;;;10.58;50.03;99908.19;1676582;84;21605;-72
2022/04/11 09:35:40;;;;;;;2.00;0.87;;;;;;;10.51;48.99;99919.65;1689253;83;21017;-71
2022/04/11 09:38:12;;;;;;;2.23;0.60;;;;;;;10.45;49.69;99922.27;1696047;83;21045;-72
2022/04/11 09:40:48;;;;;;;4.33;0.67;;;;;;;10.41;50.00;99921.84;1690917;83;21027;-71
2022/04/11 09:43:25;;;;;;;1.47;1.10;;;;;;;10.43;49.64;99921.65;1690247;83;22262;-70
2022/04/11 09:45:52;;;;;;;1.07;0.50;;;;;;;10.40;49.50;99901.56;1688532;83;21029;-72
2022/04/11 09:48:24;;;;;;;1.30;0.70;;;;;;;10.49;49.00;99915.03;1685204;83;21152;-71
2022/04/11 09:50:52;;;;;;;3.47;0.73;;;;;;;10.47;48.69;99911.75;1688317;83;21540;-72
2022/04/11 09:53:33;;;;;;;1.00;0.83;;;;;;;10.46;48.77;99913.27;1693589;83;22276;-69
2022/04/11 09:56:06;;;;;;;2.73;0.60;;;;;;;10.49;49.11;99920.36;1687518;83;21529;-71
2022/04/11 09:58:37;;;;;;;2.73;0.70;;;;;;;10.48;48.80;99913.89;1693782;83;21030;-72
2022/04/11 10:01:05;;;;;;;1.43;0.63;;;;;;;10.40;48.61;99924.21;1655628;84;21080;-69
2022/04/11 10:03:32;;;;;;;1.77;0.57;;;;;;;10.30;48.02;99914.38;1662662;84;21063;-73
2022/04/11 10:05:59;;;;;;;1.23;1.07;;;;;;;10.24;47.84;99916.50;1652246;84;21099;-72
2022/04/11 10:08:27;;;;;;;2.43;1.00;;;;;;;10.15;48.25;99899.84;1658115;84;21322;-71
2022/04/11 10:10:56;;;;;;;1.47;0.77;;;;;;;10.10;48.37;99912.95;1665471;84;21886;-70
2022/04/11 10:13:23;;;;;;;0.90;0.70;;;;;;;10.08;48.42;99926.97;1683222;84;21061;-72
2022/04/11 10:15:51;;;;;;;3.17;1.17;;;;;;;10.11;48.59;99907.43;1648973;85;21117;-72
2022/04/11 10:18:23;;;;;;;0.60;0.50;;;;;;;10.23;48.76;99903.70;1689608;84;21022;-72
2022/04/11 10:20:57;;;;;;;1.63;0.83;;;;;;;10.36;47.77;99882.16;1675953;84;21125;-73
2022/04/11 10:23:37;;;;;;;2.30;1.00;;;;;;;10.46;46.94;99885.30;1689654;84;21090;-72
2022/04/11 10:26:16;;;;;;;1.47;0.63;;;;;;;10.57;47.04;99899.87;1689879;84;21026;-71
2022/04/11 10:28:48;;;;;;;1.13;0.70;;;;;;;10.61;46.45;99889.96;1710486;83;21136;-71
2022/04/11 10:31:15;;;;;;;0.77;0.40;;;;;;;10.62;45.28;99888.92;1710699;83;21391;-72
2022/04/11 10:33:49;;;;;;;1.63;1.03;;;;;;;10.64;44.93;99908.23;1708478;83;22077;-71
2022/04/11 10:36:36;;;;;;;1.60;0.70;;;;;;;10.61;45.00;99913.14;1710807;83;21327;-69
2022/04/11 10:39:20;;;;;;;1.00;0.60;;;;;;;10.57;45.63;99916.70;1680629;85;21084;-73
2022/04/11 10:42:06;;;;;;;1.43;0.80;;;;;;;10.53;45.48;99892.81;1660399;86;21134;-71
2022/04/11 10:44:59;;;;;;;1.00;0.40;;;;;;;10.54;46.09;99886.96;1636180;85;21022;-72
2022/04/11 10:47:35;;;;;;;1.20;0.77;;;;;;;10.57;45.94;99883.88;1739980;82;21080;-71
2022/04/11 10:50:23;;;;;;;1.73;0.57;;;;;;;10.55;45.72;99894.77;1734842;82;21026;-69
2022/04/11 10:53:24;;;;;;;1.43;0.70;;;;;;;10.49;45.67;99901.71;1741574;82;22186;-74
2022/04/11 10:56:08;;;;;;;1.63;0.80;;;;;;;10.35;45.93;99888.52;1743602;81;21481;-72
2022/04/11 10:58:55;;;;;;;1.63;0.80;;;;;;;10.35;46.26;99884.52;1721701;83;21529;-71
2022/04/11 11:01:58;;;;;;;3.03;0.70;;;;;;;10.45;46.87;99889.81;1723953;82;21163;-71
2022/04/11 11:04:35;;;;;;;2.13;0.73;;;;;;;10.48;46.89;99901.38;1710435;83;21006;-71
2022/04/11 11:07:30;;;;;;;0.97;0.53;;;;;;;10.31;44.39;99899.56;1708411;83;21017;-69
2022/04/11 11:10:07;;;;;;;0.87;0.80;;;;;;;10.18;43.98;99910.12;1693757;82;21707;-71
2022/04/11 11:12:38;;;;;;;2.87;0.77;;;;;;;10.05;44.66;99917.51;1700440;84;21053;-71
2022/04/11 11:15:27;;;;;;;2.07;0.80;;;;;;;9.97;45.39;99913.67;1705261;84;21135;-69
2022/04/11 11:18:00;;;;;;;1.03;0.60;;;;;;;9.93;45.82;99915.91;1710803;83;21037;-70
2022/04/11 11:20:32;;;;;;;2.57;0.90;;;;;;;9.85;46.20;99921.88;1701709;84;21055;-70
2022/04/11 11:23:28;;;;;;;3.17;0.73;;;;;;;9.77;46.68;99919.36;1723813;82;21537;-70
2022/04/11 11:26:11;;;;;;;1.32;0.78;;;;;;;9.69;46.65;99922.48;1734937;82;21589;-80
2022/04/11 11:28:52;;;;;;;3.13;1.10;;;;;;;9.64;46.88;99921.41;1739168;82;21089;-78
2022/04/11 11:31:21;;;;;;;1.27;0.63;;;;;;;9.57;47.29;99918.70;1743758;82;21057;-77
2022/04/11 11:33:54;;;;;;;2.90;1.13;;;;;;;9.53;47.72;99914.28;1745756;81;20999;-75
2022/04/11 11:36:30;;;;;;;1.83;0.53;;;;;;;9.54;47.92;99919.89;1729862;82;21085;-79
2022/04/11 11:38:57;;;;;;;1.03;0.70;;;;;;;9.52;47.71;99926.44;1749761;82;21021;-78
2022/04/11 11:41:25;;;;;;;1.60;0.73;;;;;;;9.47;47.44;99921.67;1754163;82;21055;-76
2022/04/11 11:43:57;;;;;;;1.43;0.70;;;;;;;9.45;47.75;99924.22;1748043;81;21031;-78
2022/04/11 11:46:24;;;;;;;1.07;0.80;;;;;;;9.47;48.33;99920.34;1749041;82;21129;-74
2022/04/11 11:48:55;;;;;;;1.53;1.30;;;;;;;9.52;48.23;99912.61;1726782;82;21030;-73
2022/04/11 11:51:22;;;;;;;2.77;0.73;;;;;;;9.53;48.66;99910.28;1752532;82;21080;-76
2022/04/11 11:53:51;;;;;;;1.27;0.80;;;;;;;9.57;48.50;99916.05;1725835;82;21089;-76
2022/04/11 11:56:17;;;;;;;3.90;0.70;;;;;;;9.61;48.49;99908.51;1751479;81;20986;-71
2022/04/11 11:58:45;;;;;;;1.37;0.72;;;;;;;9.64;48.19;99914.23;1750275;81;21014;-76